createdAt,value
2024-02-24T00:00:13.049Z,983.00
2024-02-24T00:01:13.059Z,983.06
2024-02-24T00:02:13.102Z,983.03
2024-02-24T00:03:13.051Z,983.04
2024-02-24T00:04:13.025Z,983.06
2024-02-24T00:05:13.043Z,983.11
2024-02-24T00:06:13.028Z,983.16
2024-02-24T00:07:12.957Z,983.15
2024-02-24T00:08:13.003Z,983.20
2024-02-24T00:09:12.946Z,983.20
2024-02-24T00:10:12.922Z,983.19
2024-02-24T00:11:13.021Z,983.20
2024-02-24T00:12:12.988Z,983.17
2024-02-24T00:13:12.889Z,983.16
2024-02-24T00:14:12.891Z,983.20
2024-02-24T00:15:12.849Z,983.18
2024-02-24T00:16:12.840Z,983.21
2024-02-24T00:17:12.873Z,983.24
2024-02-24T00:18:12.840Z,983.25
2024-02-24T00:19:12.892Z,983.27
2024-02-24T00:20:12.889Z,983.29
2024-02-24T00:21:12.781Z,983.22
2024-02-24T00:22:12.778Z,983.24
2024-02-24T00:23:12.775Z,983.24
2024-02-24T00:24:12.743Z,983.24
2024-02-24T00:25:12.722Z,983.28
2024-02-24T00:26:12.801Z,983.28
2024-02-24T00:27:12.730Z,983.32
2024-02-24T00:28:12.683Z,983.26
2024-02-24T00:29:12.704Z,983.37
2024-02-24T00:30:12.661Z,983.39
2024-02-24T00:31:12.666Z,983.38
2024-02-24T00:32:12.666Z,983.32
2024-02-24T00:33:12.652Z,983.37
2024-02-24T00:34:12.682Z,983.39
2024-02-24T00:35:12.611Z,983.34
2024-02-24T00:36:12.603Z,983.37
2024-02-24T00:37:12.578Z,983.40
2024-02-24T00:38:12.605Z,983.38
2024-02-24T00:39:12.549Z,983.41
2024-02-24T00:40:12.527Z,983.36
2024-02-24T00:41:12.572Z,983.42
2024-02-24T00:42:12.500Z,983.57
2024-02-24T00:43:12.507Z,983.53
2024-02-24T00:44:12.509Z,983.51
2024-02-24T00:45:12.465Z,983.52
2024-02-24T00:46:12.463Z,983.46
2024-02-24T00:47:12.438Z,983.51
2024-02-24T00:48:12.470Z,983.40
2024-02-24T00:49:12.428Z,983.38
2024-02-24T00:50:12.447Z,983.31
2024-02-24T00:51:12.395Z,983.33
2024-02-24T00:52:12.372Z,983.36
2024-02-24T00:53:12.371Z,983.37
2024-02-24T00:54:12.378Z,983.43
2024-02-24T00:55:12.357Z,983.41
2024-02-24T00:56:12.333Z,983.45
2024-02-24T00:57:12.301Z,983.47
2024-02-24T00:58:12.292Z,983.46
2024-02-24T00:59:12.341Z,983.48
2024-02-24T01:00:12.298Z,983.46
2024-02-24T01:01:12.285Z,983.51
2024-02-24T01:02:12.309Z,983.58
2024-02-24T01:03:12.223Z,983.57
2024-02-24T01:04:12.255Z,983.55
2024-02-24T01:05:12.302Z,983.56
2024-02-24T01:06:12.187Z,983.66
2024-02-24T01:07:12.231Z,983.64
2024-02-24T01:08:12.189Z,983.62
2024-02-24T01:09:12.180Z,983.64
2024-02-24T01:10:12.191Z,983.62
2024-02-24T01:11:12.222Z,983.61
2024-02-24T01:12:12.238Z,983.56
2024-02-24T01:13:12.109Z,983.50
2024-02-24T01:14:12.248Z,983.56
2024-02-24T01:15:12.140Z,983.53
2024-02-24T01:16:12.062Z,983.51
2024-02-24T01:17:12.096Z,983.52
2024-02-24T01:18:12.139Z,983.54
2024-02-24T01:19:12.115Z,983.45
2024-02-24T01:20:12.046Z,983.59
2024-02-24T01:21:11.994Z,983.48
2024-02-24T01:22:11.982Z,983.58
2024-02-24T01:23:12.001Z,983.50
2024-02-24T01:24:11.971Z,983.53
2024-02-24T01:25:11.951Z,983.55
2024-02-24T01:26:11.960Z,983.52
2024-02-24T01:27:11.939Z,983.57
2024-02-24T01:28:11.923Z,983.53
2024-02-24T01:29:12.015Z,983.54
2024-02-24T01:30:11.885Z,983.58
2024-02-24T01:31:11.892Z,983.61
2024-02-24T01:32:11.875Z,983.60
2024-02-24T01:33:12.050Z,983.61
2024-02-24T01:34:11.979Z,983.58
2024-02-24T01:35:11.861Z,983.60
2024-02-24T01:36:11.814Z,983.56
2024-02-24T01:37:11.795Z,983.53
2024-02-24T01:38:11.848Z,983.54
2024-02-24T01:39:11.786Z,983.57
2024-02-24T01:40:11.756Z,983.58
2024-02-24T01:41:11.777Z,983.53
2024-02-24T01:42:11.730Z,983.50
2024-02-24T01:43:11.735Z,983.51
2024-02-24T01:44:11.733Z,983.45
2024-02-24T01:45:11.698Z,983.48
2024-02-24T01:46:11.700Z,983.44
2024-02-24T01:47:11.766Z,983.47
2024-02-24T01:48:11.768Z,983.52
2024-02-24T01:49:11.740Z,983.47
2024-02-24T01:50:11.732Z,983.48
2024-02-24T01:51:11.652Z,983.39
2024-02-24T01:52:11.618Z,983.47
2024-02-24T01:53:11.619Z,983.53
2024-02-24T01:54:11.580Z,983.44
2024-02-24T01:55:11.574Z,983.47
2024-02-24T01:56:11.629Z,983.55
2024-02-24T01:57:11.563Z,983.54
2024-02-24T01:58:11.536Z,983.48
2024-02-24T01:59:11.549Z,983.43
2024-02-24T02:00:11.535Z,983.44
2024-02-24T02:01:11.549Z,983.45
2024-02-24T02:02:11.539Z,983.53
2024-02-24T02:03:11.528Z,983.45
2024-02-24T02:04:11.489Z,983.42
2024-02-24T02:05:11.473Z,983.50
2024-02-24T02:06:11.519Z,983.50
2024-02-24T02:07:11.446Z,983.54
2024-02-24T02:08:11.462Z,983.55
2024-02-24T02:09:11.416Z,983.52
2024-02-24T02:10:11.383Z,983.54
2024-02-24T02:11:11.539Z,983.56
2024-02-24T02:12:11.406Z,983.59
2024-02-24T02:13:11.344Z,983.62
2024-02-24T02:14:11.361Z,983.63
2024-02-24T02:15:11.318Z,983.63
2024-02-24T02:16:11.330Z,983.63
2024-02-24T02:17:11.318Z,983.67
2024-02-24T02:18:11.451Z,983.67
2024-02-24T02:19:11.392Z,983.57
2024-02-24T02:20:11.276Z,983.65
2024-02-24T02:21:11.315Z,983.67
2024-02-24T02:22:11.231Z,983.62
2024-02-24T02:23:11.235Z,983.64
2024-02-24T02:24:11.213Z,983.67
2024-02-24T02:25:11.265Z,983.64
2024-02-24T02:26:11.247Z,983.61
2024-02-24T02:27:11.172Z,983.56
2024-02-24T02:28:11.163Z,983.56
2024-02-24T02:29:11.207Z,983.57
2024-02-24T02:30:11.160Z,983.61
2024-02-24T02:31:11.122Z,983.52
2024-02-24T02:32:11.163Z,983.55
2024-02-24T02:33:11.224Z,983.56
2024-02-24T02:34:11.167Z,983.59
2024-02-24T02:35:11.193Z,983.55
2024-02-24T02:36:11.063Z,983.59
2024-02-24T02:37:11.059Z,983.60
2024-02-24T02:38:11.049Z,983.63
2024-02-24T02:39:11.021Z,983.54
2024-02-24T02:40:11.034Z,983.57
2024-02-24T02:41:11.009Z,983.64
2024-02-24T02:42:11.055Z,983.54
2024-02-24T02:43:10.964Z,983.58
2024-02-24T02:44:11.002Z,983.57
2024-02-24T02:45:10.964Z,983.57
2024-02-24T02:46:10.926Z,983.63
2024-02-24T02:47:17.493Z,983.60
2024-02-24T02:48:11.068Z,983.60
2024-02-24T02:49:11.059Z,983.62
2024-02-24T02:50:10.927Z,983.67
2024-02-24T02:51:10.904Z,983.64
2024-02-24T02:52:10.856Z,983.64
2024-02-24T02:53:10.882Z,983.66
2024-02-24T02:54:10.852Z,983.60
2024-02-24T02:55:10.819Z,983.68
2024-02-24T02:56:10.816Z,983.73
2024-02-24T02:57:10.793Z,983.72
2024-02-24T02:58:10.774Z,983.66
2024-02-24T02:59:10.815Z,983.73
2024-02-24T03:00:10.764Z,983.74
2024-02-24T03:01:10.827Z,983.72
2024-02-24T03:02:10.810Z,983.73
2024-02-24T03:03:10.719Z,983.77
2024-02-24T03:04:10.749Z,983.74
2024-02-24T03:05:10.773Z,983.65
2024-02-24T03:06:10.733Z,983.79
2024-02-24T03:07:10.686Z,983.75
2024-02-24T03:08:10.688Z,983.67
2024-02-24T03:09:10.667Z,983.72
2024-02-24T03:10:10.643Z,983.67
2024-02-24T03:11:10.660Z,983.64
2024-02-24T03:12:10.673Z,983.67
2024-02-24T03:13:10.601Z,983.68
2024-02-24T03:14:10.593Z,983.68
2024-02-24T03:15:10.568Z,983.75
2024-02-24T03:16:10.549Z,983.68
2024-02-24T03:17:10.564Z,983.75
2024-02-24T03:18:10.646Z,983.80
2024-02-24T03:19:10.529Z,983.72
2024-02-24T03:20:10.542Z,983.77
2024-02-24T03:21:10.482Z,983.80
2024-02-24T03:22:10.473Z,983.86
2024-02-24T03:23:10.523Z,983.84
2024-02-24T03:24:10.454Z,983.87
2024-02-24T03:25:10.436Z,983.80
2024-02-24T03:26:10.430Z,983.87
2024-02-24T03:27:10.430Z,983.93
2024-02-24T03:28:10.423Z,983.90
2024-02-24T03:29:10.399Z,983.93
2024-02-24T03:30:10.371Z,983.89
2024-02-24T03:31:10.354Z,983.87
2024-02-24T03:32:10.388Z,983.88
2024-02-24T03:33:10.444Z,983.94
2024-02-24T03:34:10.371Z,983.92
2024-02-24T03:35:10.494Z,983.88
2024-02-24T03:36:10.293Z,983.94
2024-02-24T03:37:10.290Z,983.97
2024-02-24T03:38:10.297Z,984.03
2024-02-24T03:39:10.279Z,984.03
2024-02-24T03:40:10.258Z,984.02
2024-02-24T03:41:10.281Z,984.09
2024-02-24T03:42:10.226Z,984.06
2024-02-24T03:43:10.203Z,984.03
2024-02-24T03:44:10.208Z,984.03
2024-02-24T03:45:10.193Z,984.09
2024-02-24T03:46:10.158Z,984.05
2024-02-24T03:47:10.250Z,984.10
2024-02-24T03:48:10.313Z,984.08
2024-02-24T03:49:10.253Z,984.02
2024-02-24T03:50:10.134Z,984.06
2024-02-24T03:51:10.107Z,984.05
2024-02-24T03:52:10.097Z,984.04
2024-02-24T03:53:10.217Z,984.08
2024-02-24T03:54:10.146Z,984.08
2024-02-24T03:55:10.081Z,984.08
2024-02-24T03:56:10.093Z,984.04
2024-02-24T03:57:10.022Z,984.03
2024-02-24T03:58:10.004Z,984.18
2024-02-24T03:59:10.046Z,984.08
2024-02-24T04:00:10.008Z,984.02
2024-02-24T04:01:10.012Z,984.09
2024-02-24T04:02:09.986Z,984.10
2024-02-24T04:03:09.936Z,984.17
2024-02-24T04:04:09.999Z,984.11
2024-02-24T04:05:10.007Z,984.12
2024-02-24T04:06:09.982Z,984.10
2024-02-24T04:07:09.885Z,984.07
2024-02-24T04:08:09.933Z,984.10
2024-02-24T04:09:09.885Z,984.13
2024-02-24T04:10:09.874Z,984.19
2024-02-24T04:11:09.940Z,984.15
2024-02-24T04:12:09.888Z,984.14
2024-02-24T04:13:09.820Z,984.14
2024-02-24T04:14:09.818Z,984.06
2024-02-24T04:15:09.824Z,984.10
2024-02-24T04:16:09.771Z,984.09
2024-02-24T04:17:09.788Z,984.13
2024-02-24T04:18:09.864Z,984.12
2024-02-24T04:19:09.796Z,984.16
2024-02-24T04:20:09.768Z,984.20
2024-02-24T04:21:09.741Z,984.15
2024-02-24T04:22:09.696Z,984.19
2024-02-24T04:23:09.758Z,984.18
2024-02-24T04:24:09.673Z,984.19
2024-02-24T04:25:09.708Z,984.23
2024-02-24T04:26:09.713Z,984.21
2024-02-24T04:27:09.645Z,984.22
2024-02-24T04:28:09.614Z,984.28
2024-02-24T04:29:09.741Z,984.25
2024-02-24T04:30:09.735Z,984.33
2024-02-24T04:31:09.597Z,984.31
2024-02-24T04:32:09.664Z,984.31
2024-02-24T04:33:09.669Z,984.38
2024-02-24T04:34:09.633Z,984.33
2024-02-24T04:35:09.537Z,984.38
2024-02-24T04:36:09.520Z,984.33
2024-02-24T04:37:09.498Z,984.34
2024-02-24T04:38:09.520Z,984.31
2024-02-24T04:39:09.516Z,984.37
2024-02-24T04:40:09.460Z,984.34
2024-02-24T04:41:09.531Z,984.37
2024-02-24T04:42:09.430Z,984.38
2024-02-24T04:43:09.473Z,984.33
2024-02-24T04:44:09.452Z,984.39
2024-02-24T04:45:09.393Z,984.34
2024-02-24T04:46:09.380Z,984.38
2024-02-24T04:47:09.373Z,984.40
2024-02-24T04:48:09.579Z,984.38
2024-02-24T04:49:09.457Z,984.40
2024-02-24T04:50:09.521Z,984.39
2024-02-24T04:51:09.371Z,984.40
2024-02-24T04:52:09.303Z,984.38
2024-02-24T04:53:09.337Z,984.39
2024-02-24T04:54:09.277Z,984.43
2024-02-24T04:55:09.292Z,984.43
2024-02-24T04:56:09.284Z,984.46
2024-02-24T04:57:09.239Z,984.45
2024-02-24T04:58:09.231Z,984.53
2024-02-24T04:59:09.253Z,984.54
2024-02-24T05:00:09.206Z,984.52
2024-02-24T05:01:09.236Z,984.55
2024-02-24T05:02:09.221Z,984.55
2024-02-24T05:03:09.172Z,984.59
2024-02-24T05:04:09.170Z,984.60
2024-02-24T05:05:09.180Z,984.59
2024-02-24T05:06:09.154Z,984.63
2024-02-24T05:07:09.116Z,984.71
2024-02-24T05:08:09.151Z,984.72
2024-02-24T05:09:09.188Z,984.69
2024-02-24T05:10:09.063Z,984.65
2024-02-24T05:11:09.173Z,984.63
2024-02-24T05:12:09.171Z,984.73
2024-02-24T05:13:09.066Z,984.60
2024-02-24T05:14:09.047Z,984.71
2024-02-24T05:15:09.029Z,984.68
2024-02-24T05:16:08.993Z,984.70
2024-02-24T05:17:09.493Z,984.73
2024-02-24T05:18:09.168Z,984.72
2024-02-24T05:19:09.197Z,984.73
2024-02-24T05:20:09.008Z,984.79
2024-02-24T05:21:08.934Z,984.68
2024-02-24T05:22:08.927Z,984.72
2024-02-24T05:23:08.939Z,984.76
2024-02-24T05:24:08.886Z,984.74
2024-02-24T05:25:08.872Z,984.74
2024-02-24T05:26:08.925Z,984.81
2024-02-24T05:27:08.863Z,984.72
2024-02-24T05:28:08.848Z,984.72
2024-02-24T05:29:08.901Z,984.71
2024-02-24T05:30:08.830Z,984.73
2024-02-24T05:31:08.863Z,984.73
2024-02-24T05:32:08.822Z,984.75
2024-02-24T05:33:08.897Z,984.78
2024-02-24T05:34:09.048Z,984.75
2024-02-24T05:35:08.757Z,984.76
2024-02-24T05:36:08.746Z,984.72
2024-02-24T05:37:08.717Z,984.74
2024-02-24T05:38:08.770Z,984.73
2024-02-24T05:39:08.710Z,984.71
2024-02-24T05:40:08.710Z,984.68
2024-02-24T05:41:08.685Z,984.72
2024-02-24T05:42:08.671Z,984.65
2024-02-24T05:43:08.651Z,984.65
2024-02-24T05:44:08.666Z,984.64
2024-02-24T05:45:08.651Z,984.62
2024-02-24T05:46:08.639Z,984.69
2024-02-24T05:47:08.688Z,984.66
2024-02-24T05:48:08.713Z,984.70
2024-02-24T05:49:08.617Z,984.74
2024-02-24T05:50:08.663Z,984.77
2024-02-24T05:51:08.611Z,984.76
2024-02-24T05:52:08.556Z,984.77
2024-02-24T05:53:11.813Z,984.81
2024-02-24T05:54:08.511Z,984.78
2024-02-24T05:55:08.514Z,984.83
2024-02-24T05:56:08.620Z,984.88
2024-02-24T05:57:08.552Z,984.90
2024-02-24T05:58:08.502Z,984.82
2024-02-24T05:59:08.505Z,984.85
2024-02-24T06:00:08.447Z,984.93
2024-02-24T06:02:08.552Z,984.98
2024-02-24T06:03:08.464Z,984.96
2024-02-24T06:04:08.474Z,985.08
2024-02-24T06:05:08.514Z,985.04
2024-02-24T06:06:08.470Z,985.05
2024-02-24T06:07:08.420Z,985.05
2024-02-24T06:08:08.361Z,985.05
2024-02-24T06:09:08.333Z,985.07
2024-02-24T06:10:08.311Z,985.09
2024-02-24T06:11:08.552Z,985.14
2024-02-24T06:12:08.361Z,985.16
2024-02-24T06:13:08.274Z,985.22
2024-02-24T06:14:08.339Z,985.22
2024-02-24T06:15:08.257Z,985.21
2024-02-24T06:16:08.227Z,985.23
2024-02-24T06:17:08.241Z,985.28
2024-02-24T06:18:08.425Z,985.30
2024-02-24T06:19:08.262Z,985.33
2024-02-24T06:20:08.240Z,985.34
2024-02-24T06:21:08.238Z,985.36
2024-02-24T06:22:08.193Z,985.31
2024-02-24T06:23:08.191Z,985.32
2024-02-24T06:24:08.166Z,985.38
2024-02-24T06:25:08.115Z,985.35
2024-02-24T06:26:08.144Z,985.37
2024-02-24T06:27:08.095Z,985.38
2024-02-24T06:28:08.091Z,985.39
2024-02-24T06:29:08.102Z,985.43
2024-02-24T06:30:08.054Z,985.39
2024-02-24T06:31:08.069Z,985.38
2024-02-24T06:32:08.084Z,985.47
2024-02-24T06:33:08.179Z,985.41
2024-02-24T06:34:08.866Z,985.45
2024-02-24T06:35:08.055Z,985.52
2024-02-24T06:36:07.975Z,985.52
2024-02-24T06:37:07.962Z,985.53
2024-02-24T06:38:07.975Z,985.53
2024-02-24T06:39:07.948Z,985.57
2024-02-24T06:40:10.727Z,985.56
2024-02-24T06:41:07.975Z,985.57
2024-02-24T06:42:07.908Z,985.56
2024-02-24T06:43:07.972Z,985.57
2024-02-24T06:44:07.950Z,985.60
2024-02-24T06:45:07.897Z,985.58
2024-02-24T06:46:07.859Z,985.61
2024-02-24T06:47:17.983Z,985.68
2024-02-24T06:48:08.138Z,985.66
2024-02-24T06:49:08.124Z,985.63
2024-02-24T06:50:07.855Z,985.64
2024-02-24T06:51:07.834Z,985.63
2024-02-24T06:52:07.792Z,985.64
2024-02-24T06:53:07.837Z,985.68
2024-02-24T06:54:07.751Z,985.79
2024-02-24T06:55:07.757Z,985.72
2024-02-24T06:56:07.798Z,985.71
2024-02-24T06:57:07.729Z,985.74
2024-02-24T06:58:07.715Z,985.73
2024-02-24T06:59:08.070Z,985.67
2024-02-24T07:00:07.732Z,985.76
2024-02-24T07:01:07.758Z,985.71
2024-02-24T07:02:07.760Z,985.81
2024-02-24T07:03:07.834Z,985.78
2024-02-24T07:04:07.626Z,985.81
2024-02-24T07:05:07.641Z,985.70
2024-02-24T07:06:07.723Z,985.75
2024-02-24T07:07:07.687Z,985.80
2024-02-24T07:08:07.587Z,985.83
2024-02-24T07:09:07.562Z,985.86
2024-02-24T07:10:07.561Z,985.86
2024-02-24T07:11:07.585Z,985.90
2024-02-24T07:12:07.623Z,985.92
2024-02-24T07:13:07.510Z,985.97
2024-02-24T07:14:07.533Z,985.98
2024-02-24T07:15:07.492Z,985.98
2024-02-24T07:16:07.487Z,986.01
2024-02-24T07:17:07.456Z,986.04
2024-02-24T07:18:07.549Z,986.01
2024-02-24T07:19:07.487Z,986.02
2024-02-24T07:20:07.417Z,986.04
2024-02-24T07:21:07.437Z,986.08
2024-02-24T07:22:07.387Z,986.12
2024-02-24T07:23:07.411Z,986.09
2024-02-24T07:24:07.365Z,986.11
2024-02-24T07:25:07.352Z,986.10
2024-02-24T07:26:07.352Z,986.14
2024-02-24T07:27:07.365Z,986.15
2024-02-24T07:28:07.312Z,986.11
2024-02-24T07:29:07.298Z,986.11
2024-02-24T07:30:07.292Z,986.22
2024-02-24T07:31:07.289Z,986.16
2024-02-24T07:32:07.290Z,986.13
2024-02-24T07:33:07.355Z,986.22
2024-02-24T07:34:07.408Z,986.22
2024-02-24T07:35:07.223Z,986.27
2024-02-24T07:36:07.219Z,986.29
2024-02-24T07:37:07.211Z,986.25
2024-02-24T07:38:07.178Z,986.27
2024-02-24T07:39:07.193Z,986.32
2024-02-24T07:40:07.182Z,986.34
2024-02-24T07:41:07.162Z,986.30
2024-02-24T07:42:07.122Z,986.37
2024-02-24T07:43:07.112Z,986.38
2024-02-24T07:44:07.099Z,986.40
2024-02-24T07:45:07.129Z,986.41
2024-02-24T07:46:07.070Z,986.44
2024-02-24T07:47:07.076Z,986.40
2024-02-24T07:48:07.289Z,986.47
2024-02-24T07:49:07.073Z,986.48
2024-02-24T07:50:07.034Z,986.49
2024-02-24T07:51:07.011Z,986.49
2024-02-24T07:52:06.992Z,986.56
2024-02-24T07:53:06.978Z,986.51
2024-02-24T07:54:06.973Z,986.54
2024-02-24T07:55:07.005Z,986.53
2024-02-24T07:56:06.940Z,986.53
2024-02-24T07:57:06.926Z,986.62
2024-02-24T07:58:06.912Z,986.55
2024-02-24T07:59:06.914Z,986.67
2024-02-24T08:00:06.901Z,986.60
2024-02-24T08:01:06.886Z,986.65
2024-02-24T08:02:06.869Z,986.62
2024-02-24T08:03:06.854Z,986.62
2024-02-24T08:04:07.033Z,986.64
2024-02-24T08:05:06.826Z,986.65
2024-02-24T08:06:06.809Z,986.68
2024-02-24T08:07:06.983Z,986.62
2024-02-24T08:08:06.784Z,986.76
2024-02-24T08:09:06.792Z,986.78
2024-02-24T08:10:06.787Z,986.76
2024-02-24T08:11:06.765Z,986.75
2024-02-24T08:12:06.839Z,986.82
2024-02-24T08:13:06.724Z,986.85
2024-02-24T08:14:06.768Z,986.79
2024-02-24T08:15:06.780Z,986.87
2024-02-24T08:16:06.690Z,986.84
2024-02-24T08:17:06.674Z,986.92
2024-02-24T08:18:06.744Z,986.94
2024-02-24T08:19:06.679Z,986.98
2024-02-24T08:20:06.631Z,986.95
2024-02-24T08:21:06.692Z,986.99
2024-02-24T08:22:06.616Z,986.98
2024-02-24T08:23:06.613Z,987.10
2024-02-24T08:24:06.588Z,987.03
2024-02-24T08:25:06.563Z,987.15
2024-02-24T08:26:06.563Z,987.15
2024-02-24T08:27:06.558Z,987.14
2024-02-24T08:28:06.546Z,987.15
2024-02-24T08:29:06.518Z,987.18
2024-02-24T08:30:06.509Z,987.19
2024-02-24T08:31:06.546Z,987.26
2024-02-24T08:32:06.500Z,987.21
2024-02-24T08:33:06.604Z,987.21
2024-02-24T08:34:06.564Z,987.14
2024-02-24T08:35:06.496Z,987.20
2024-02-24T08:36:06.499Z,987.20
2024-02-24T08:37:06.431Z,987.26
2024-02-24T08:38:06.397Z,987.23
2024-02-24T08:39:06.419Z,987.19
2024-02-24T08:40:06.455Z,987.27
2024-02-24T08:41:06.353Z,987.34
2024-02-24T08:42:06.395Z,987.38
2024-02-24T08:43:06.358Z,987.40
2024-02-24T08:44:06.319Z,987.47
2024-02-24T08:45:06.307Z,987.41
2024-02-24T08:46:07.087Z,987.51
2024-02-24T08:47:06.296Z,987.52
2024-02-24T08:48:06.447Z,987.48
2024-02-24T08:49:06.249Z,987.52
2024-02-24T08:50:06.328Z,987.48
2024-02-24T08:51:06.270Z,987.46
2024-02-24T08:52:06.226Z,987.50
2024-02-24T08:53:06.228Z,987.56
2024-02-24T08:54:06.189Z,987.49
2024-02-24T08:55:06.166Z,987.60
2024-02-24T08:56:06.269Z,987.56
2024-02-24T08:57:06.142Z,987.61
2024-02-24T08:58:06.130Z,987.60
2024-02-24T08:59:06.139Z,987.60
2024-02-24T09:00:06.107Z,987.60
2024-02-24T09:01:06.173Z,987.63
2024-02-24T09:02:06.077Z,987.66
2024-02-24T09:03:06.086Z,987.67
2024-02-24T09:04:06.084Z,987.73
2024-02-24T09:05:06.055Z,987.71
2024-02-24T09:06:06.149Z,987.71
2024-02-24T09:07:06.112Z,987.70
2024-02-24T09:08:06.006Z,987.70
2024-02-24T09:09:05.984Z,987.80
2024-02-24T09:10:07.297Z,987.72
2024-02-24T09:11:06.013Z,987.74
2024-02-24T09:12:05.970Z,987.72
2024-02-24T09:13:05.968Z,987.68
2024-02-24T09:14:05.933Z,987.76
2024-02-24T09:15:06.047Z,987.86
2024-02-24T09:16:05.905Z,987.83
2024-02-24T09:17:05.885Z,987.90
2024-02-24T09:18:06.472Z,987.91
2024-02-24T09:19:06.001Z,987.84
2024-02-24T09:20:05.875Z,987.93
2024-02-24T09:21:05.833Z,987.95
2024-02-24T09:22:05.819Z,987.89
2024-02-24T09:23:05.810Z,987.98
2024-02-24T09:24:05.800Z,987.96
2024-02-24T09:25:05.807Z,988.00
2024-02-24T09:26:05.772Z,988.01
2024-02-24T09:27:05.767Z,988.04
2024-02-24T09:28:06.631Z,988.04
2024-02-24T09:29:05.731Z,988.06
2024-02-24T09:30:05.738Z,988.12
2024-02-24T09:31:05.736Z,988.16
2024-02-24T09:32:05.702Z,988.05
2024-02-24T09:33:05.800Z,988.15
2024-02-24T09:34:07.344Z,988.10
2024-02-24T09:35:05.682Z,988.15
2024-02-24T09:36:05.713Z,988.21
2024-02-24T09:37:05.629Z,988.17
2024-02-24T09:38:05.633Z,988.21
2024-02-24T09:39:05.663Z,988.18
2024-02-24T09:40:05.604Z,988.22
2024-02-24T09:41:05.577Z,988.33
2024-02-24T09:42:05.567Z,988.34
2024-02-24T09:43:05.558Z,988.35
2024-02-24T09:44:05.566Z,988.33
2024-02-24T09:45:05.531Z,988.33
2024-02-24T09:46:05.530Z,988.28
2024-02-24T09:47:05.531Z,988.26
2024-02-24T09:48:05.677Z,988.27
2024-02-24T09:49:05.605Z,988.38
2024-02-24T09:50:05.469Z,988.29
2024-02-24T09:51:05.537Z,988.39
2024-02-24T09:52:05.438Z,988.33
2024-02-24T09:53:05.436Z,988.34
2024-02-24T09:54:05.441Z,988.38
2024-02-24T09:55:05.395Z,988.34
2024-02-24T09:56:05.389Z,988.33
2024-02-24T09:57:05.408Z,988.30
2024-02-24T09:58:05.398Z,988.36
2024-02-24T09:59:05.350Z,988.36
2024-02-24T10:00:05.469Z,988.44
2024-02-24T10:01:05.375Z,988.47
2024-02-24T10:02:05.308Z,988.54
2024-02-24T10:03:05.373Z,988.53
2024-02-24T10:04:05.318Z,988.55
2024-02-24T10:05:05.305Z,988.54
2024-02-24T10:06:05.313Z,988.58
2024-02-24T10:07:05.242Z,988.54
2024-02-24T10:08:05.253Z,988.69
2024-02-24T10:09:05.256Z,988.66
2024-02-24T10:10:05.205Z,988.65
2024-02-24T10:11:05.272Z,988.65
2024-02-24T10:12:05.225Z,988.61
2024-02-24T10:13:05.197Z,988.67
2024-02-24T10:14:05.157Z,988.78
2024-02-24T10:15:05.143Z,988.66
2024-02-24T10:16:05.137Z,988.75
2024-02-24T10:17:05.159Z,988.78
2024-02-24T10:18:05.205Z,988.78
2024-02-24T10:19:05.332Z,988.81
2024-02-24T10:20:05.079Z,988.80
2024-02-24T10:21:05.064Z,988.78
2024-02-24T10:22:05.061Z,988.78
2024-02-24T10:23:05.064Z,988.86
2024-02-24T10:24:05.032Z,988.86
2024-02-24T10:25:05.044Z,988.83
2024-02-24T10:26:05.002Z,988.88
2024-02-24T10:27:05.173Z,988.93
2024-02-24T10:28:04.968Z,988.90
2024-02-24T10:29:04.955Z,988.90
2024-02-24T10:30:04.955Z,988.89
2024-02-24T10:31:04.952Z,988.95
2024-02-24T10:32:04.937Z,988.90
2024-02-24T10:33:05.251Z,988.89
2024-02-24T10:34:05.113Z,988.88
2024-02-24T10:35:05.913Z,988.92
2024-02-24T10:36:04.910Z,988.96
2024-02-24T10:37:04.864Z,988.95
2024-02-24T10:38:18.272Z,988.86
2024-02-24T10:39:04.851Z,988.93
2024-02-24T10:40:04.827Z,988.89
2024-02-24T10:41:04.815Z,988.94
2024-02-24T10:42:04.843Z,988.89
2024-02-24T10:43:04.775Z,988.95
2024-02-24T10:44:10.768Z,988.99
2024-02-24T10:45:04.875Z,988.95
2024-02-24T10:46:04.784Z,988.97
2024-02-24T10:47:04.754Z,988.93
2024-02-24T10:48:04.889Z,989.09
2024-02-24T10:49:04.770Z,988.88
2024-02-24T10:50:04.712Z,988.95
2024-02-24T10:51:04.761Z,988.90
2024-02-24T10:52:04.665Z,988.81
2024-02-24T10:53:04.644Z,988.85
2024-02-24T10:54:04.693Z,988.91
2024-02-24T10:55:04.639Z,988.94
2024-02-24T10:56:04.631Z,988.95
2024-02-24T10:57:04.655Z,989.01
2024-02-24T10:58:04.582Z,989.01
2024-02-24T10:59:04.566Z,989.09
2024-02-24T11:00:04.594Z,989.09
2024-02-24T11:01:04.584Z,989.10
2024-02-24T11:02:04.529Z,989.07
2024-02-24T11:03:04.568Z,989.05
2024-02-24T11:04:04.569Z,989.11
2024-02-24T11:05:04.544Z,989.33
2024-02-24T11:06:04.660Z,989.37
2024-02-24T11:07:04.606Z,989.31
2024-02-24T11:08:04.488Z,989.19
2024-02-24T11:09:04.455Z,989.15
2024-02-24T11:10:04.425Z,989.09
2024-02-24T11:11:04.431Z,989.07
2024-02-24T11:12:04.604Z,989.08
2024-02-24T11:13:04.382Z,989.21
2024-02-24T11:14:10.364Z,988.95
2024-02-24T11:15:04.422Z,988.98
2024-02-24T11:16:04.349Z,988.99
2024-02-24T11:17:04.330Z,989.00
2024-02-24T11:18:04.367Z,989.15
2024-02-24T11:19:04.407Z,989.16
2024-02-24T11:20:04.290Z,989.06
2024-02-24T11:21:04.354Z,989.08
2024-02-24T11:22:04.912Z,989.13
2024-02-24T11:23:04.293Z,989.12
2024-02-24T11:24:04.283Z,989.04
2024-02-24T11:25:04.234Z,989.09
2024-02-24T11:26:04.226Z,989.08
2024-02-24T11:27:04.347Z,989.12
2024-02-24T11:28:04.215Z,989.05
2024-02-24T11:29:04.191Z,989.12
2024-02-24T11:30:04.244Z,989.13
2024-02-24T11:31:04.159Z,989.14
2024-02-24T11:32:04.172Z,989.22
2024-02-24T11:33:04.245Z,989.11
2024-02-24T11:34:04.325Z,989.01
2024-02-24T11:35:04.103Z,989.02
2024-02-24T11:36:04.210Z,989.02
2024-02-24T11:37:04.104Z,989.08
2024-02-24T11:38:04.085Z,989.09
2024-02-24T11:39:04.081Z,989.08
2024-02-24T11:40:04.044Z,989.12
2024-02-24T11:41:04.026Z,989.12
2024-02-24T11:42:04.021Z,989.10
2024-02-24T11:43:04.011Z,989.04
2024-02-24T11:44:03.980Z,989.05
2024-02-24T11:45:04.031Z,989.09
2024-02-24T11:46:03.976Z,988.99
2024-02-24T11:47:03.954Z,988.99
2024-02-24T11:48:04.071Z,988.96
2024-02-24T11:49:04.120Z,989.03
2024-02-24T11:50:03.913Z,988.97
2024-02-24T11:51:03.962Z,989.00
2024-02-24T11:52:03.918Z,989.03
2024-02-24T11:53:03.868Z,989.00
2024-02-24T11:54:03.859Z,989.01
2024-02-24T11:55:03.863Z,988.99
2024-02-24T11:56:03.823Z,989.10
2024-02-24T11:57:06.091Z,989.06
2024-02-24T11:58:03.798Z,989.01
2024-02-24T11:59:03.786Z,989.03
2024-02-24T12:00:03.795Z,989.03
2024-02-24T12:01:03.812Z,989.14
2024-02-24T12:02:03.761Z,989.11
2024-02-24T12:03:03.738Z,989.09
2024-02-24T12:04:03.795Z,989.08
2024-02-24T12:05:03.744Z,989.14
2024-02-24T12:06:03.765Z,989.24
2024-02-24T12:07:03.770Z,989.06
2024-02-24T12:08:03.674Z,989.00
2024-02-24T12:09:03.741Z,988.93
2024-02-24T12:10:03.649Z,989.03
2024-02-24T12:11:03.689Z,988.98
2024-02-24T12:12:03.630Z,988.98
2024-02-24T12:13:03.606Z,989.10
2024-02-24T12:14:03.590Z,989.04
2024-02-24T12:15:05.428Z,989.02
2024-02-24T12:16:03.589Z,989.01
2024-02-24T12:17:03.560Z,989.11
2024-02-24T12:18:03.682Z,989.12
2024-02-24T12:19:03.581Z,989.04
2024-02-24T12:20:03.525Z,989.05
2024-02-24T12:21:03.605Z,989.07
2024-02-24T12:22:03.492Z,989.07
2024-02-24T12:23:03.476Z,989.04
2024-02-24T12:24:03.535Z,988.99
2024-02-24T12:25:03.497Z,989.09
2024-02-24T12:26:03.466Z,989.10
2024-02-24T12:27:03.558Z,989.19
2024-02-24T12:28:03.425Z,989.14
2024-02-24T12:29:03.396Z,989.12